Gunilla — SERW — position and weather

sailwx.info

Track history (hours):
 
Tides and Currents Weather Stations Pressure Air Temp Water Temp Dewpoint Dewpoint Depression Visibility Wind Speed Wind Dir Waves Ship Positions

Gunilla (Sweden)

Ship's website: http://www.gunilla.nu/engelsk/frameset_english.htm

Last reported at 2017-Feb-26 20:17 UTC. Time now 2017-Mar-26 14:54 UTC.
Position N 25°28' W 079°50'.
Warning: this ship's position is 27 days out of date.

Length 49.4 m; beam 8.4 m; draft 2.7 m.

Type: Sailing vessel. MMSI: 265318000.

Date/timePositionNaut miles runAvg speedWind from/ knotsBaromVisibWave heightAir tempDewpointWater temp
2017-Feb-26 20:17N 25°28' W 079°50'4 4.1
2017-Feb-26 19:21N 25°32' W 079°52'3 4.0
2017-Feb-26 18:32N 25°35' W 079°53'4 4.2
2017-Feb-26 17:33N 25°38' W 079°56'4 4.3
2017-Feb-26 16:33N 25°41' W 079°60'3 3.1
2017-Feb-26 15:33N 25°43' W 080°02'5 5.3
2017-Feb-26 14:33N 25°46' W 080°07'3 2.7
2017-Feb-26 13:31N 25°46' W 080°11'0 0.0
2017-Feb-26 12:31N 25°46' W 080°11'0 0.0
2017-Feb-26 11:31N 25°46' W 080°11'0 0.0
2017-Feb-26 10:31N 25°46' W 080°11'0 0.0
2017-Feb-26 09:31N 25°46' W 080°11'0 0.0
2017-Feb-26 08:31N 25°46' W 080°11'0 0.0
2017-Feb-26 07:31N 25°46' W 080°11'0 0.0
2017-Feb-26 06:31N 25°46' W 080°11'0 0.0
2017-Feb-26 05:31N 25°46' W 080°11'0 0.0
2017-Feb-26 04:31N 25°46' W 080°11'0 0.0
2017-Feb-26 03:31N 25°46' W 080°11'0 0.0
2017-Feb-26 02:31N 25°46' W 080°11'0 0.0
2017-Feb-26 01:31N 25°46' W 080°11'0 0.0
2017-Feb-26 00:31N 25°46' W 080°11'0 0.0
2017-Feb-25 23:31N 25°46' W 080°11'0 0.0
2017-Feb-25 22:31N 25°46' W 080°11'0 0.0
2017-Feb-25 21:31N 25°46' W 080°11'0 0.0
2017-Feb-25 20:31N 25°46' W 080°11'0 0.0
2017-Feb-25 19:31N 25°46' W 080°11'0 0.0
2017-Feb-25 18:31N 25°46' W 080°11'0 0.0
2017-Feb-25 17:31N 25°46' W 080°11'0 0.0
2017-Feb-25 16:31N 25°46' W 080°11'0 0.0
2017-Feb-25 15:31N 25°46' W 080°11'0 0.0
2017-Feb-25 14:31N 25°46' W 080°11'0 0.0
2017-Feb-25 13:31N 25°46' W 080°11'0 0.0
2017-Feb-25 12:31N 25°46' W 080°11'0 0.0
2017-Feb-25 11:31N 25°46' W 080°11'0 0.0
2017-Feb-25 10:31N 25°46' W 080°11'0 0.0
2017-Feb-25 09:31N 25°46' W 080°11'0 0.0
2017-Feb-25 08:31N 25°46' W 080°11'0 0.0
2017-Feb-25 07:31N 25°46' W 080°11'0 0.0
2017-Feb-25 06:31N 25°46' W 080°11'0 0.0
2017-Feb-25 05:31N 25°46' W 080°11'0 0.0
2017-Feb-25 04:31N 25°46' W 080°11'0 0.0
2017-Feb-25 03:31N 25°46' W 080°11'0 0.0
2017-Feb-25 02:31N 25°46' W 080°11'0 0.0
2017-Feb-25 01:31N 25°46' W 080°11'0 0.0
2017-Feb-25 00:31N 25°46' W 080°11'0 0.0
2017-Feb-24 23:31N 25°46' W 080°11'0 0.0
2017-Feb-24 22:31N 25°46' W 080°11'0 0.0
2017-Feb-24 21:31N 25°46' W 080°11'0 0.0
2017-Feb-24 20:31N 25°46' W 080°11'0 0.0
2017-Feb-24 19:31N 25°46' W 080°11'0 0.0
2017-Feb-24 18:31N 25°46' W 080°11'0 0.0
2017-Feb-24 17:31N 25°46' W 080°11'0 0.0
2017-Feb-24 16:31N 25°46' W 080°11'0 0.0
2017-Feb-24 15:31N 25°46' W 080°11'0 0.0
2017-Feb-24 14:31N 25°46' W 080°11'0 0.0
2017-Feb-24 13:31N 25°46' W 080°11'0 0.0
2017-Feb-24 12:31N 25°46' W 080°11'0 0.0
2017-Feb-24 11:31N 25°46' W 080°11'0 0.0
2017-Feb-24 10:31N 25°46' W 080°11'0 0.0
2017-Feb-24 09:31N 25°46' W 080°11'0 0.0
2017-Feb-24 08:31N 25°46' W 080°11'0 0.0
2017-Feb-24 07:31N 25°46' W 080°11'0 0.0
2017-Feb-24 06:31N 25°46' W 080°11'0 0.0
2017-Feb-24 05:31N 25°46' W 080°11'0 0.0
2017-Feb-24 04:31N 25°46' W 080°11'0 0.0
2017-Feb-24 03:31N 25°46' W 080°11'0 0.0
2017-Feb-24 02:31N 25°46' W 080°11'0 0.0
2017-Feb-24 01:31N 25°46' W 080°11'0 0.0
2017-Feb-24 00:31N 25°46' W 080°11'0 0.0
2017-Feb-23 23:31N 25°46' W 080°11'0 0.0
2017-Feb-23 22:31N 25°46' W 080°11'0 0.0
2017-Feb-23 21:31N 25°46' W 080°11'0 0.0
2017-Feb-23 20:31N 25°46' W 080°11'0 0.0
2017-Feb-23 19:31N 25°46' W 080°11'0 0.0
2017-Feb-23 18:31N 25°46' W 080°11'0 0.0
2017-Feb-23 17:31N 25°46' W 080°11'0 0.0
2017-Feb-23 16:31N 25°46' W 080°11'0 0.0
2017-Feb-23 15:31N 25°46' W 080°11'0 0.0
2017-Feb-23 14:31N 25°46' W 080°11'0 0.0
2017-Feb-23 13:31N 25°46' W 080°11'0 0.0
2017-Feb-23 12:31N 25°46' W 080°11'0 0.0
2017-Feb-23 11:31N 25°46' W 080°11'0 0.0
2017-Feb-23 10:31N 25°46' W 080°11'0 0.0
2017-Feb-23 09:31N 25°46' W 080°11'0 0.0
2017-Feb-23 08:31N 25°46' W 080°11'0 0.0
2017-Feb-23 07:31N 25°46' W 080°11'0 0.0
2017-Feb-23 06:31N 25°46' W 080°11'0 0.0
2017-Feb-23 05:31N 25°46' W 080°11'0 0.0
2017-Feb-23 04:31N 25°46' W 080°11'0 0.0
2017-Feb-23 03:31N 25°46' W 080°11'0 0.0
2017-Feb-23 02:31N 25°46' W 080°11'0 0.0
2017-Feb-23 01:31N 25°46' W 080°11'0 0.0
2017-Feb-23 00:31N 25°46' W 080°11'0 0.0
2017-Feb-22 23:31N 25°46' W 080°11'0 0.0
2017-Feb-22 22:31N 25°46' W 080°11'0 0.0
2017-Feb-22 21:31N 25°46' W 080°11'0 0.0
2017-Feb-22 20:31N 25°46' W 080°11'0 0.0
2017-Feb-22 19:31N 25°46' W 080°11'0 0.0
2017-Feb-22 18:31N 25°46' W 080°11'0 0.0
2017-Feb-22 17:31N 25°46' W 080°11'0 0.0
2017-Feb-22 16:31N 25°46' W 080°11'0 0.0
2017-Feb-22 15:31N 25°46' W 080°11'0 0.0
2017-Feb-22 14:34N 25°46' W 080°11'0 0.0
2017-Feb-22 13:31N 25°46' W 080°11'0 0.0
2017-Feb-22 12:31N 25°46' W 080°11'0 0.0
2017-Feb-22 11:31N 25°46' W 080°11'0 0.0
2017-Feb-22 10:31N 25°46' W 080°11'0 0.0
2017-Feb-22 09:31N 25°46' W 080°11'0 0.0
2017-Feb-22 08:31N 25°46' W 080°11'0 0.0
2017-Feb-22 07:31N 25°46' W 080°11'0 0.0
2017-Feb-22 06:31N 25°46' W 080°11'0 0.0
2017-Feb-22 05:31N 25°46' W 080°11'0 0.0
2017-Feb-22 04:34N 25°46' W 080°11'0 0.0
2017-Feb-22 03:34N 25°46' W 080°11'0 0.0
2017-Feb-22 02:34N 25°46' W 080°11'0 0.0
2017-Feb-22 01:31N 25°46' W 080°11'0 0.0
2017-Feb-22 00:31N 25°46' W 080°11'0 0.0
2017-Feb-21 23:34N 25°46' W 080°11'0 0.0
2017-Feb-21 22:33N 25°46' W 080°11'0 0.0
2017-Feb-21 21:34N 25°46' W 080°11'0 0.0
2017-Feb-21 20:33N 25°46' W 080°11'0 0.0
2017-Feb-21 19:31N 25°46' W 080°11'0 0.0
2017-Feb-21 18:34N 25°46' W 080°11'0 0.0
2017-Feb-21 17:34N 25°46' W 080°11'0 0.0
2017-Feb-21 16:33N 25°46' W 080°11'0 0.0
2017-Feb-21 15:33N 25°46' W 080°11'0 0.0
2017-Feb-21 14:34N 25°46' W 080°11'0 0.0
2017-Feb-21 13:33N 25°46' W 080°11'0 0.0
2017-Feb-21 12:34N 25°46' W 080°11'0 0.0
2017-Feb-21 11:33N 25°46' W 080°11'0 0.0
2017-Feb-21 10:33N 25°46' W 080°11'0 0.0
2017-Feb-21 09:34N 25°46' W 080°11'0 0.0
2017-Feb-21 08:33N 25°46' W 080°11'0 0.0
2017-Feb-21 07:34N 25°46' W 080°11'0 0.0
2017-Feb-21 06:33N 25°46' W 080°11'0 0.0
2017-Feb-21 05:30N 25°46' W 080°11'0 0.0
2017-Feb-21 04:33N 25°46' W 080°11'0 0.0
2017-Feb-21 03:33N 25°46' W 080°11'0 0.0
2017-Feb-21 02:34N 25°46' W 080°11'0 0.0
2017-Feb-21 01:33N 25°46' W 080°11'0 0.0
2017-Feb-21 00:33N 25°46' W 080°11'0 0.0
2017-Feb-20 23:33N 25°46' W 080°11'0 0.0
2017-Feb-20 22:33N 25°46' W 080°11'0 0.0
2017-Feb-20 21:33N 25°46' W 080°11'0 0.0
2017-Feb-20 20:33N 25°46' W 080°11'0 0.0
2017-Feb-20 19:33N 25°46' W 080°11'0 0.0
2017-Feb-20 18:33N 25°46' W 080°11'0 0.0
2017-Feb-20 17:33N 25°46' W 080°11'0 0.0
2017-Feb-20 16:33N 25°46' W 080°11'0 0.0
2017-Feb-20 15:33N 25°46' W 080°11'0 0.0
2017-Feb-20 14:30N 25°46' W 080°11'2 2.2
2017-Feb-20 13:34N 25°46' W 080°08'2 2.3
2017-Feb-20 12:33N 25°46' W 080°06'0 0.1
2017-Feb-20 11:32N 25°46' W 080°06'0 0.0
2017-Feb-20 10:32N 25°46' W 080°06'0 0.0
2017-Feb-20 09:32N 25°46' W 080°06'0 0.0
2017-Feb-20 08:32N 25°46' W 080°06'0 0.0
2017-Feb-20 07:32N 25°46' W 080°06'0 0.0
2017-Feb-20 06:32N 25°46' W 080°06'0 0.0
2017-Feb-20 05:32N 25°46' W 080°06'0 0.0
2017-Feb-20 04:32N 25°46' W 080°06'0 0.0
2017-Feb-20 03:32N 25°46' W 080°06'0 0.0
2017-Feb-20 02:32N 25°46' W 080°06'0 0.0
2017-Feb-20 01:32N 25°46' W 080°06'0 0.0
2017-Feb-20 00:32N 25°46' W 080°06'0 0.1
2017-Feb-19 23:32N 25°46' W 080°06'0 0.0
2017-Feb-19 22:32N 25°46' W 080°06'0 0.0
2017-Feb-19 21:32N 25°46' W 080°06'0 0.0
2017-Feb-19 20:32N 25°46' W 080°06'0 0.0
2017-Feb-19 19:32N 25°46' W 080°06'0 0.0
2017-Feb-19 18:32N 25°46' W 080°06'0 0.0
2017-Feb-19 17:32N 25°46' W 080°06'0 0.0
2017-Feb-19 16:32N 25°46' W 080°06'0 0.0
2017-Feb-19 15:32N 25°46' W 080°06'0 0.0
2017-Feb-19 14:29N 25°46' W 080°06'0 0.0
2017-Feb-19 13:32N 25°46' W 080°06'2 2.5
2017-Feb-19 12:33N 25°45' W 080°03'6 6.3
2017-Feb-19 11:34N 25°40' W 079°60'6 6.3
2017-Feb-19 10:33N 25°35' W 079°55'  
Track history (hours):
 
Tides and Currents Weather Stations Pressure Air Temp Water Temp Dewpoint Dewpoint Depression Visibility Wind Speed Wind Dir Waves Ship Positions

Gunilla (Sweden)

Ship's website: http://www.gunilla.nu/engelsk/frameset_english.htm

Last reported at 2017-Feb-26 20:17 UTC. Time now 2017-Mar-26 14:54 UTC.
Position N 25°28' W 079°50'.
Warning: this ship's position is 27 days out of date.

Length 49.4 m; beam 8.4 m; draft 2.7 m.

Type: Sailing vessel. MMSI: 265318000.

Date/timePositionNaut miles runAvg speedWind from/ knotsBaromVisibWave heightAir tempDewpointWater temp
2017-Feb-26 20:17N 25°28' W 079°50'4 4.1
2017-Feb-26 19:21N 25°32' W 079°52'3 4.0
2017-Feb-26 18:32N 25°35' W 079°53'4 4.2
2017-Feb-26 17:33N 25°38' W 079°56'4 4.3
2017-Feb-26 16:33N 25°41' W 079°60'3 3.1
2017-Feb-26 15:33N 25°43' W 080°02'5 5.3
2017-Feb-26 14:33N 25°46' W 080°07'3 2.7
2017-Feb-26 13:31N 25°46' W 080°11'0 0.0
2017-Feb-26 12:31N 25°46' W 080°11'0 0.0
2017-Feb-26 11:31N 25°46' W 080°11'0 0.0
2017-Feb-26 10:31N 25°46' W 080°11'0 0.0
2017-Feb-26 09:31N 25°46' W 080°11'0 0.0
2017-Feb-26 08:31N 25°46' W 080°11'0 0.0
2017-Feb-26 07:31N 25°46' W 080°11'0 0.0
2017-Feb-26 06:31N 25°46' W 080°11'0 0.0
2017-Feb-26 05:31N 25°46' W 080°11'0 0.0
2017-Feb-26 04:31N 25°46' W 080°11'0 0.0
2017-Feb-26 03:31N 25°46' W 080°11'0 0.0
2017-Feb-26 02:31N 25°46' W 080°11'0 0.0
2017-Feb-26 01:31N 25°46' W 080°11'0 0.0
2017-Feb-26 00:31N 25°46' W 080°11'0 0.0
2017-Feb-25 23:31N 25°46' W 080°11'0 0.0
2017-Feb-25 22:31N 25°46' W 080°11'0 0.0
2017-Feb-25 21:31N 25°46' W 080°11'0 0.0
2017-Feb-25 20:31N 25°46' W 080°11'0 0.0
2017-Feb-25 19:31N 25°46' W 080°11'0 0.0
2017-Feb-25 18:31N 25°46' W 080°11'0 0.0
2017-Feb-25 17:31N 25°46' W 080°11'0 0.0
2017-Feb-25 16:31N 25°46' W 080°11'0 0.0
2017-Feb-25 15:31N 25°46' W 080°11'0 0.0
2017-Feb-25 14:31N 25°46' W 080°11'0 0.0
2017-Feb-25 13:31N 25°46' W 080°11'0 0.0
2017-Feb-25 12:31N 25°46' W 080°11'0 0.0
2017-Feb-25 11:31N 25°46' W 080°11'0 0.0
2017-Feb-25 10:31N 25°46' W 080°11'0 0.0
2017-Feb-25 09:31N 25°46' W 080°11'0 0.0
2017-Feb-25 08:31N 25°46' W 080°11'0 0.0
2017-Feb-25 07:31N 25°46' W 080°11'0 0.0
2017-Feb-25 06:31N 25°46' W 080°11'0 0.0
2017-Feb-25 05:31N 25°46' W 080°11'0 0.0
2017-Feb-25 04:31N 25°46' W 080°11'0 0.0
2017-Feb-25 03:31N 25°46' W 080°11'0 0.0
2017-Feb-25 02:31N 25°46' W 080°11'0 0.0
2017-Feb-25 01:31N 25°46' W 080°11'0 0.0
2017-Feb-25 00:31N 25°46' W 080°11'0 0.0
2017-Feb-24 23:31N 25°46' W 080°11'0 0.0
2017-Feb-24 22:31N 25°46' W 080°11'0 0.0
2017-Feb-24 21:31N 25°46' W 080°11'0 0.0
2017-Feb-24 20:31N 25°46' W 080°11'0 0.0
2017-Feb-24 19:31N 25°46' W 080°11'0 0.0
2017-Feb-24 18:31N 25°46' W 080°11'0 0.0
2017-Feb-24 17:31N 25°46' W 080°11'0 0.0
2017-Feb-24 16:31N 25°46' W 080°11'0 0.0
2017-Feb-24 15:31N 25°46' W 080°11'0 0.0
2017-Feb-24 14:31N 25°46' W 080°11'0 0.0
2017-Feb-24 13:31N 25°46' W 080°11'0 0.0
2017-Feb-24 12:31N 25°46' W 080°11'0 0.0
2017-Feb-24 11:31N 25°46' W 080°11'0 0.0
2017-Feb-24 10:31N 25°46' W 080°11'0 0.0
2017-Feb-24 09:31N 25°46' W 080°11'0 0.0
2017-Feb-24 08:31N 25°46' W 080°11'0 0.0
2017-Feb-24 07:31N 25°46' W 080°11'0 0.0
2017-Feb-24 06:31N 25°46' W 080°11'0 0.0
2017-Feb-24 05:31N 25°46' W 080°11'0 0.0
2017-Feb-24 04:31N 25°46' W 080°11'0 0.0
2017-Feb-24 03:31N 25°46' W 080°11'0 0.0
2017-Feb-24 02:31N 25°46' W 080°11'0 0.0
2017-Feb-24 01:31N 25°46' W 080°11'0 0.0
2017-Feb-24 00:31N 25°46' W 080°11'0 0.0
2017-Feb-23 23:31N 25°46' W 080°11'0 0.0
2017-Feb-23 22:31N 25°46' W 080°11'0 0.0
2017-Feb-23 21:31N 25°46' W 080°11'0 0.0
2017-Feb-23 20:31N 25°46' W 080°11'0 0.0
2017-Feb-23 19:31N 25°46' W 080°11'0 0.0
2017-Feb-23 18:31N 25°46' W 080°11'0 0.0
2017-Feb-23 17:31N 25°46' W 080°11'0 0.0
2017-Feb-23 16:31N 25°46' W 080°11'0 0.0
2017-Feb-23 15:31N 25°46' W 080°11'0 0.0
2017-Feb-23 14:31N 25°46' W 080°11'0 0.0
2017-Feb-23 13:31N 25°46' W 080°11'0 0.0
2017-Feb-23 12:31N 25°46' W 080°11'0 0.0
2017-Feb-23 11:31N 25°46' W 080°11'0 0.0
2017-Feb-23 10:31N 25°46' W 080°11'0 0.0
2017-Feb-23 09:31N 25°46' W 080°11'0 0.0
2017-Feb-23 08:31N 25°46' W 080°11'0 0.0
2017-Feb-23 07:31N 25°46' W 080°11'0 0.0
2017-Feb-23 06:31N 25°46' W 080°11'0 0.0
2017-Feb-23 05:31N 25°46' W 080°11'0 0.0
2017-Feb-23 04:31N 25°46' W 080°11'0 0.0
2017-Feb-23 03:31N 25°46' W 080°11'0 0.0
2017-Feb-23 02:31N 25°46' W 080°11'0 0.0
2017-Feb-23 01:31N 25°46' W 080°11'0 0.0
2017-Feb-23 00:31N 25°46' W 080°11'0 0.0
2017-Feb-22 23:31N 25°46' W 080°11'0 0.0
2017-Feb-22 22:31N 25°46' W 080°11'0 0.0
2017-Feb-22 21:31N 25°46' W 080°11'0 0.0
2017-Feb-22 20:31N 25°46' W 080°11'0 0.0
2017-Feb-22 19:31N 25°46' W 080°11'0 0.0
2017-Feb-22 18:31N 25°46' W 080°11'0 0.0
2017-Feb-22 17:31N 25°46' W 080°11'0 0.0
2017-Feb-22 16:31N 25°46' W 080°11'0 0.0
2017-Feb-22 15:31N 25°46' W 080°11'0 0.0
2017-Feb-22 14:34N 25°46' W 080°11'0 0.0
2017-Feb-22 13:31N 25°46' W 080°11'0 0.0
2017-Feb-22 12:31N 25°46' W 080°11'0 0.0
2017-Feb-22 11:31N 25°46' W 080°11'0 0.0
2017-Feb-22 10:31N 25°46' W 080°11'0 0.0
2017-Feb-22 09:31N 25°46' W 080°11'0 0.0
2017-Feb-22 08:31N 25°46' W 080°11'0 0.0
2017-Feb-22 07:31N 25°46' W 080°11'0 0.0
2017-Feb-22 06:31N 25°46' W 080°11'0 0.0
2017-Feb-22 05:31N 25°46' W 080°11'0 0.0
2017-Feb-22 04:34N 25°46' W 080°11'0 0.0
2017-Feb-22 03:34N 25°46' W 080°11'0 0.0
2017-Feb-22 02:34N 25°46' W 080°11'0 0.0
2017-Feb-22 01:31N 25°46' W 080°11'0 0.0
2017-Feb-22 00:31N 25°46' W 080°11'0 0.0
2017-Feb-21 23:34N 25°46' W 080°11'0 0.0
2017-Feb-21 22:33N 25°46' W 080°11'0 0.0
2017-Feb-21 21:34N 25°46' W 080°11'0 0.0
2017-Feb-21 20:33N 25°46' W 080°11'0 0.0
2017-Feb-21 19:31N 25°46' W 080°11'0 0.0
2017-Feb-21 18:34N 25°46' W 080°11'0 0.0
2017-Feb-21 17:34N 25°46' W 080°11'0 0.0
2017-Feb-21 16:33N 25°46' W 080°11'0 0.0
2017-Feb-21 15:33N 25°46' W 080°11'0 0.0
2017-Feb-21 14:34N 25°46' W 080°11'0 0.0
2017-Feb-21 13:33N 25°46' W 080°11'0 0.0
2017-Feb-21 12:34N 25°46' W 080°11'0 0.0
2017-Feb-21 11:33N 25°46' W 080°11'0 0.0
2017-Feb-21 10:33N 25°46' W 080°11'0 0.0
2017-Feb-21 09:34N 25°46' W 080°11'0 0.0
2017-Feb-21 08:33N 25°46' W 080°11'0 0.0
2017-Feb-21 07:34N 25°46' W 080°11'0 0.0
2017-Feb-21 06:33N 25°46' W 080°11'0 0.0
2017-Feb-21 05:30N 25°46' W 080°11'0 0.0
2017-Feb-21 04:33N 25°46' W 080°11'0 0.0
2017-Feb-21 03:33N 25°46' W 080°11'0 0.0
2017-Feb-21 02:34N 25°46' W 080°11'0 0.0
2017-Feb-21 01:33N 25°46' W 080°11'0 0.0
2017-Feb-21 00:33N 25°46' W 080°11'0 0.0
2017-Feb-20 23:33N 25°46' W 080°11'0 0.0
2017-Feb-20 22:33N 25°46' W 080°11'0 0.0
2017-Feb-20 21:33N 25°46' W 080°11'0 0.0
2017-Feb-20 20:33N 25°46' W 080°11'0 0.0
2017-Feb-20 19:33N 25°46' W 080°11'0 0.0
2017-Feb-20 18:33N 25°46' W 080°11'0 0.0
2017-Feb-20 17:33N 25°46' W 080°11'0 0.0
2017-Feb-20 16:33N 25°46' W 080°11'0 0.0
2017-Feb-20 15:33N 25°46' W 080°11'0 0.0
2017-Feb-20 14:30N 25°46' W 080°11'2 2.2
2017-Feb-20 13:34N 25°46' W 080°08'2 2.3
2017-Feb-20 12:33N 25°46' W 080°06'0 0.1
2017-Feb-20 11:32N 25°46' W 080°06'0 0.0
2017-Feb-20 10:32N 25°46' W 080°06'0 0.0
2017-Feb-20 09:32N 25°46' W 080°06'0 0.0
2017-Feb-20 08:32N 25°46' W 080°06'0 0.0
2017-Feb-20 07:32N 25°46' W 080°06'0 0.0
2017-Feb-20 06:32N 25°46' W 080°06'0 0.0
2017-Feb-20 05:32N 25°46' W 080°06'0 0.0
2017-Feb-20 04:32N 25°46' W 080°06'0 0.0
2017-Feb-20 03:32N 25°46' W 080°06'0 0.0
2017-Feb-20 02:32N 25°46' W 080°06'0 0.0
2017-Feb-20 01:32N 25°46' W 080°06'0 0.0
2017-Feb-20 00:32N 25°46' W 080°06'0 0.1
2017-Feb-19 23:32N 25°46' W 080°06'0 0.0
2017-Feb-19 22:32N 25°46' W 080°06'0 0.0
2017-Feb-19 21:32N 25°46' W 080°06'0 0.0
2017-Feb-19 20:32N 25°46' W 080°06'0 0.0
2017-Feb-19 19:32N 25°46' W 080°06'0 0.0
2017-Feb-19 18:32N 25°46' W 080°06'0 0.0
2017-Feb-19 17:32N 25°46' W 080°06'0 0.0
2017-Feb-19 16:32N 25°46' W 080°06'0 0.0
2017-Feb-19 15:32N 25°46' W 080°06'0 0.0
2017-Feb-19 14:29N 25°46' W 080°06'0 0.0
2017-Feb-19 13:32N 25°46' W 080°06'2 2.5
2017-Feb-19 12:33N 25°45' W 080°03'6 6.3
2017-Feb-19 11:34N 25°40' W 079°60'6 6.3
2017-Feb-19 10:33N 25°35' W 079°55'  

Dump ship's entire track history